sensor_id;sensor_type;location;lat;lon;timestamp;temperature;humidity
16118;DHT22;8163;50.118;5.342;2022-09-09T00:02:08;15.20;99.90
16118;DHT22;8163;50.118;5.342;2022-09-09T00:04:38;15.20;99.90
16118;DHT22;8163;50.118;5.342;2022-09-09T00:07:13;15.20;99.90
16118;DHT22;8163;50.118;5.342;2022-09-09T00:09:46;15.20;99.90
16118;DHT22;8163;50.118;5.342;2022-09-09T00:12:17;15.20;99.90
16118;DHT22;8163;50.118;5.342;2022-09-09T00:14:51;15.20;99.90
16118;DHT22;8163;50.118;5.342;2022-09-09T00:17:29;15.30;99.90
16118;DHT22;8163;50.118;5.342;2022-09-09T00:20:02;15.30;99.90
16118;DHT22;8163;50.118;5.342;2022-09-09T00:22:32;15.30;99.90
16118;DHT22;8163;50.118;5.342;2022-09-09T00:25:08;15.20;99.90
16118;DHT22;8163;50.118;5.342;2022-09-09T00:27:41;15.20;99.90
16118;DHT22;8163;50.118;5.342;2022-09-09T00:30:16;15.20;99.90
16118;DHT22;8163;50.118;5.342;2022-09-09T00:32:45;15.10;99.90
16118;DHT22;8163;50.118;5.342;2022-09-09T00:35:21;15.10;99.90
16118;DHT22;8163;50.118;5.342;2022-09-09T00:37:53;15.10;99.90
16118;DHT22;8163;50.118;5.342;2022-09-09T00:40:29;15.20;99.90
16118;DHT22;8163;50.118;5.342;2022-09-09T00:43:16;15.20;99.90
16118;DHT22;8163;50.118;5.342;2022-09-09T00:45:58;15.20;99.90
16118;DHT22;8163;50.118;5.342;2022-09-09T00:48:33;15.20;99.90
16118;DHT22;8163;50.118;5.342;2022-09-09T00:51:07;15.10;99.90
16118;DHT22;8163;50.118;5.342;2022-09-09T00:53:39;15.20;99.90
16118;DHT22;8163;50.118;5.342;2022-09-09T00:56:13;15.20;99.90
16118;DHT22;8163;50.118;5.342;2022-09-09T00:58:42;15.20;99.90
16118;DHT22;8163;50.118;5.342;2022-09-09T01:01:11;15.10;99.90
16118;DHT22;8163;50.118;5.342;2022-09-09T01:03:43;15.20;99.90
16118;DHT22;8163;50.118;5.342;2022-09-09T01:06:16;15.20;99.90
16118;DHT22;8163;50.118;5.342;2022-09-09T01:09:04;15.20;99.90
16118;DHT22;8163;50.118;5.342;2022-09-09T01:11:37;15.20;99.90
16118;DHT22;8163;50.118;5.342;2022-09-09T01:14:16;15.20;99.90
16118;DHT22;8163;50.118;5.342;2022-09-09T01:16:45;15.20;99.90
16118;DHT22;8163;50.118;5.342;2022-09-09T01:19:18;15.20;99.90
16118;DHT22;8163;50.118;5.342;2022-09-09T01:21:52;15.20;99.90
16118;DHT22;8163;50.118;5.342;2022-09-09T01:24:27;15.20;99.90
16118;DHT22;8163;50.118;5.342;2022-09-09T01:26:59;15.20;99.90
16118;DHT22;8163;50.118;5.342;2022-09-09T01:29:29;15.10;99.90
16118;DHT22;8163;50.118;5.342;2022-09-09T01:31:58;15.10;99.90
16118;DHT22;8163;50.118;5.342;2022-09-09T01:34:27;15.10;99.90
16118;DHT22;8163;50.118;5.342;2022-09-09T01:36:59;15.10;99.90
16118;DHT22;8163;50.118;5.342;2022-09-09T01:39:32;15.00;99.90
16118;DHT22;8163;50.118;5.342;2022-09-09T01:42:01;15.00;99.90
16118;DHT22;8163;50.118;5.342;2022-09-09T01:44:30;15.00;99.90
16118;DHT22;8163;50.118;5.342;2022-09-09T01:46:57;15.00;99.90
16118;DHT22;8163;50.118;5.342;2022-09-09T01:49:24;15.00;99.90
16118;DHT22;8163;50.118;5.342;2022-09-09T01:51:53;14.90;99.90
16118;DHT22;8163;50.118;5.342;2022-09-09T01:54:23;14.90;99.90
16118;DHT22;8163;50.118;5.342;2022-09-09T01:56:58;14.80;99.90
16118;DHT22;8163;50.118;5.342;2022-09-09T01:59:51;14.90;99.90
16118;DHT22;8163;50.118;5.342;2022-09-09T02:02:24;14.80;99.90
16118;DHT22;8163;50.118;5.342;2022-09-09T02:04:55;14.80;99.90
16118;DHT22;8163;50.118;5.342;2022-09-09T02:07:33;14.80;99.90
16118;DHT22;8163;50.118;5.342;2022-09-09T02:10:10;14.80;99.90
16118;DHT22;8163;50.118;5.342;2022-09-09T02:12:40;14.80;99.90
16118;DHT22;8163;50.118;5.342;2022-09-09T02:15:17;14.80;99.90
16118;DHT22;8163;50.118;5.342;2022-09-09T02:17:49;14.80;99.90
16118;DHT22;8163;50.118;5.342;2022-09-09T02:20:19;14.80;99.90
16118;DHT22;8163;50.118;5.342;2022-09-09T02:22:49;14.80;99.90
16118;DHT22;8163;50.118;5.342;2022-09-09T02:25:19;14.70;99.90
16118;DHT22;8163;50.118;5.342;2022-09-09T02:27:48;14.80;99.90
16118;DHT22;8163;50.118;5.342;2022-09-09T02:30:18;14.80;99.90
16118;DHT22;8163;50.118;5.342;2022-09-09T02:32:47;14.80;99.90
16118;DHT22;8163;50.118;5.342;2022-09-09T02:35:17;14.70;99.90
16118;DHT22;8163;50.118;5.342;2022-09-09T02:37:45;14.70;99.90
16118;DHT22;8163;50.118;5.342;2022-09-09T02:40:14;14.70;99.90
16118;DHT22;8163;50.118;5.342;2022-09-09T02:42:42;14.70;99.90
16118;DHT22;8163;50.118;5.342;2022-09-09T02:45:11;14.70;99.90
16118;DHT22;8163;50.118;5.342;2022-09-09T02:47:47;14.70;99.90
16118;DHT22;8163;50.118;5.342;2022-09-09T02:50:20;14.70;99.90
16118;DHT22;8163;50.118;5.342;2022-09-09T02:52:58;14.70;99.90
16118;DHT22;8163;50.118;5.342;2022-09-09T02:55:37;14.70;99.90
16118;DHT22;8163;50.118;5.342;2022-09-09T02:58:07;14.60;99.90
16118;DHT22;8163;50.118;5.342;2022-09-09T03:00:35;14.60;99.90
16118;DHT22;8163;50.118;5.342;2022-09-09T03:03:04;14.60;99.90
16118;DHT22;8163;50.118;5.342;2022-09-09T03:05:32;14.60;99.90
16118;DHT22;8163;50.118;5.342;2022-09-09T03:07:59;14.60;99.90
16118;DHT22;8163;50.118;5.342;2022-09-09T03:10:26;14.60;99.90
16118;DHT22;8163;50.118;5.342;2022-09-09T03:12:52;14.60;99.90
16118;DHT22;8163;50.118;5.342;2022-09-09T03:15:21;14.50;99.90
16118;DHT22;8163;50.118;5.342;2022-09-09T03:17:54;14.60;99.90
16118;DHT22;8163;50.118;5.342;2022-09-09T03:20:23;14.50;99.90
16118;DHT22;8163;50.118;5.342;2022-09-09T03:22:51;14.50;99.90
16118;DHT22;8163;50.118;5.342;2022-09-09T03:25:18;14.60;99.90
16118;DHT22;8163;50.118;5.342;2022-09-09T03:27:45;14.50;99.90
16118;DHT22;8163;50.118;5.342;2022-09-09T03:30:12;14.50;99.90
16118;DHT22;8163;50.118;5.342;2022-09-09T03:32:39;14.50;99.90
16118;DHT22;8163;50.118;5.342;2022-09-09T03:35:07;14.50;99.90
16118;DHT22;8163;50.118;5.342;2022-09-09T03:37:35;14.50;99.90
16118;DHT22;8163;50.118;5.342;2022-09-09T03:40:05;14.60;99.90
16118;DHT22;8163;50.118;5.342;2022-09-09T03:42:32;14.60;99.90
16118;DHT22;8163;50.118;5.342;2022-09-09T03:44:59;14.50;99.90
16118;DHT22;8163;50.118;5.342;2022-09-09T03:47:25;14.60;99.90
16118;DHT22;8163;50.118;5.342;2022-09-09T03:49:52;14.60;99.90
16118;DHT22;8163;50.118;5.342;2022-09-09T03:52:19;14.60;99.90
16118;DHT22;8163;50.118;5.342;2022-09-09T03:54:48;14.60;99.90
16118;DHT22;8163;50.118;5.342;2022-09-09T03:57:15;14.60;99.90
16118;DHT22;8163;50.118;5.342;2022-09-09T03:59:42;14.60;99.90
16118;DHT22;8163;50.118;5.342;2022-09-09T04:02:09;14.60;99.90
16118;DHT22;8163;50.118;5.342;2022-09-09T04:04:36;14.60;99.90
16118;DHT22;8163;50.118;5.342;2022-09-09T04:07:03;14.60;99.90
16118;DHT22;8163;50.118;5.342;2022-09-09T04:09:32;14.60;99.90
16118;DHT22;8163;50.118;5.342;2022-09-09T04:12:02;14.70;99.90
16118;DHT22;8163;50.118;5.342;2022-09-09T04:14:29;14.60;99.90
16118;DHT22;8163;50.118;5.342;2022-09-09T04:16:56;14.60;99.90
16118;DHT22;8163;50.118;5.342;2022-09-09T04:19:25;14.60;99.90
16118;DHT22;8163;50.118;5.342;2022-09-09T04:21:52;14.60;99.90
16118;DHT22;8163;50.118;5.342;2022-09-09T04:24:19;14.70;99.90
16118;DHT22;8163;50.118;5.342;2022-09-09T04:26:47;14.60;99.90
16118;DHT22;8163;50.118;5.342;2022-09-09T04:29:15;14.70;99.90
16118;DHT22;8163;50.118;5.342;2022-09-09T04:31:42;14.70;99.90
16118;DHT22;8163;50.118;5.342;2022-09-09T04:34:10;14.70;99.90
16118;DHT22;8163;50.118;5.342;2022-09-09T04:36:37;14.60;99.90
16118;DHT22;8163;50.118;5.342;2022-09-09T04:39:06;14.70;99.90
16118;DHT22;8163;50.118;5.342;2022-09-09T04:41:32;14.60;99.90
16118;DHT22;8163;50.118;5.342;2022-09-09T04:44:03;14.70;99.90
16118;DHT22;8163;50.118;5.342;2022-09-09T04:46:32;14.60;99.90
16118;DHT22;8163;50.118;5.342;2022-09-09T04:48:59;14.60;99.90
16118;DHT22;8163;50.118;5.342;2022-09-09T04:51:26;14.60;99.90
16118;DHT22;8163;50.118;5.342;2022-09-09T04:53:53;14.60;99.90
16118;DHT22;8163;50.118;5.342;2022-09-09T04:56:20;14.60;99.90
16118;DHT22;8163;50.118;5.342;2022-09-09T04:58:47;14.60;99.90
16118;DHT22;8163;50.118;5.342;2022-09-09T05:01:16;14.60;99.90
16118;DHT22;8163;50.118;5.342;2022-09-09T05:03:46;14.60;99.90
16118;DHT22;8163;50.118;5.342;2022-09-09T05:06:15;14.50;99.90
16118;DHT22;8163;50.118;5.342;2022-09-09T05:08:43;14.50;99.90
16118;DHT22;8163;50.118;5.342;2022-09-09T05:11:15;14.50;99.90
16118;DHT22;8163;50.118;5.342;2022-09-09T05:13:42;14.50;99.90
16118;DHT22;8163;50.118;5.342;2022-09-09T05:16:10;14.40;99.90
16118;DHT22;8163;50.118;5.342;2022-09-09T05:18:37;14.40;99.90
16118;DHT22;8163;50.118;5.342;2022-09-09T05:21:06;14.50;99.90
16118;DHT22;8163;50.118;5.342;2022-09-09T05:23:33;14.50;99.90
16118;DHT22;8163;50.118;5.342;2022-09-09T05:26:01;14.50;99.90
16118;DHT22;8163;50.118;5.342;2022-09-09T05:28:28;14.50;99.90
16118;DHT22;8163;50.118;5.342;2022-09-09T05:31:00;14.50;99.90
16118;DHT22;8163;50.118;5.342;2022-09-09T05:33:29;14.60;99.90
16118;DHT22;8163;50.118;5.342;2022-09-09T05:35:57;14.60;99.90
16118;DHT22;8163;50.118;5.342;2022-09-09T05:38:26;14.50;99.90
16118;DHT22;8163;50.118;5.342;2022-09-09T05:40:53;14.50;99.90
16118;DHT22;8163;50.118;5.342;2022-09-09T05:43:21;14.50;99.90
16118;DHT22;8163;50.118;5.342;2022-09-09T05:45:58;14.60;99.90
16118;DHT22;8163;50.118;5.342;2022-09-09T05:48:28;14.60;99.90
16118;DHT22;8163;50.118;5.342;2022-09-09T05:50:56;14.60;99.90
16118;DHT22;8163;50.118;5.342;2022-09-09T05:53:23;14.60;99.90
16118;DHT22;8163;50.118;5.342;2022-09-09T05:55:59;14.60;99.90
16118;DHT22;8163;50.118;5.342;2022-09-09T05:58:26;14.60;99.90
16118;DHT22;8163;50.118;5.342;2022-09-09T06:00:53;14.60;99.90
16118;DHT22;8163;50.118;5.342;2022-09-09T06:03:26;14.60;99.90
16118;DHT22;8163;50.118;5.342;2022-09-09T06:05:57;14.50;99.90
16118;DHT22;8163;50.118;5.342;2022-09-09T06:08:24;14.50;99.90
16118;DHT22;8163;50.118;5.342;2022-09-09T06:10:53;14.60;99.90
16118;DHT22;8163;50.118;5.342;2022-09-09T06:13:20;14.70;99.90
16118;DHT22;8163;50.118;5.342;2022-09-09T06:15:50;14.60;99.90
16118;DHT22;8163;50.118;5.342;2022-09-09T06:18:18;14.70;99.90
16118;DHT22;8163;50.118;5.342;2022-09-09T06:20:54;14.70;99.90
16118;DHT22;8163;50.118;5.342;2022-09-09T06:23:21;14.70;99.90
16118;DHT22;8163;50.118;5.342;2022-09-09T06:25:49;14.70;99.90
16118;DHT22;8163;50.118;5.342;2022-09-09T06:28:18;14.80;99.90
16118;DHT22;8163;50.118;5.342;2022-09-09T06:30:45;14.70;99.90
16118;DHT22;8163;50.118;5.342;2022-09-09T06:33:12;14.70;99.90
16118;DHT22;8163;50.118;5.342;2022-09-09T06:35:41;14.70;99.90
16118;DHT22;8163;50.118;5.342;2022-09-09T06:38:08;14.80;99.90
16118;DHT22;8163;50.118;5.342;2022-09-09T06:40:35;14.80;99.90
16118;DHT22;8163;50.118;5.342;2022-09-09T06:43:02;14.70;99.90
16118;DHT22;8163;50.118;5.342;2022-09-09T06:45:30;14.80;99.90
16118;DHT22;8163;50.118;5.342;2022-09-09T06:47:57;14.80;99.90
16118;DHT22;8163;50.118;5.342;2022-09-09T06:50:24;14.80;99.90
16118;DHT22;8163;50.118;5.342;2022-09-09T06:52:51;14.80;99.90
16118;DHT22;8163;50.118;5.342;2022-09-09T06:55:18;14.70;99.90
16118;DHT22;8163;50.118;5.342;2022-09-09T06:57:46;14.80;99.90
16118;DHT22;8163;50.118;5.342;2022-09-09T07:00:14;14.90;99.90
16118;DHT22;8163;50.118;5.342;2022-09-09T07:02:42;15.20;99.90
16118;DHT22;8163;50.118;5.342;2022-09-09T07:05:10;15.20;99.90
16118;DHT22;8163;50.118;5.342;2022-09-09T07:07:37;15.20;99.90
16118;DHT22;8163;50.118;5.342;2022-09-09T07:10:05;15.30;99.90
16118;DHT22;8163;50.118;5.342;2022-09-09T07:12:33;15.60;99.90
16118;DHT22;8163;50.118;5.342;2022-09-09T07:15:00;15.70;99.90
16118;DHT22;8163;50.118;5.342;2022-09-09T07:17:27;15.70;99.90
16118;DHT22;8163;50.118;5.342;2022-09-09T07:19:56;15.90;99.90
16118;DHT22;8163;50.118;5.342;2022-09-09T07:22:23;16.10;99.90
16118;DHT22;8163;50.118;5.342;2022-09-09T07:24:50;15.90;99.90
16118;DHT22;8163;50.118;5.342;2022-09-09T07:27:17;15.80;99.90
16118;DHT22;8163;50.118;5.342;2022-09-09T07:29:44;15.70;99.90
16118;DHT22;8163;50.118;5.342;2022-09-09T07:32:11;15.70;99.90
16118;DHT22;8163;50.118;5.342;2022-09-09T07:34:39;15.70;99.90
16118;DHT22;8163;50.118;5.342;2022-09-09T07:37:07;15.70;99.90
16118;DHT22;8163;50.118;5.342;2022-09-09T07:39:37;15.70;99.90
16118;DHT22;8163;50.118;5.342;2022-09-09T07:42:05;15.50;99.90
16118;DHT22;8163;50.118;5.342;2022-09-09T07:44:32;15.40;99.90
16118;DHT22;8163;50.118;5.342;2022-09-09T07:47:00;15.30;99.90
16118;DHT22;8163;50.118;5.342;2022-09-09T07:49:27;15.30;99.90
16118;DHT22;8163;50.118;5.342;2022-09-09T07:51:54;15.20;99.90
16118;DHT22;8163;50.118;5.342;2022-09-09T07:54:23;15.20;99.90
16118;DHT22;8163;50.118;5.342;2022-09-09T07:56:51;15.40;99.90
16118;DHT22;8163;50.118;5.342;2022-09-09T07:59:19;15.70;99.90
16118;DHT22;8163;50.118;5.342;2022-09-09T08:01:48;15.70;99.90
16118;DHT22;8163;50.118;5.342;2022-09-09T08:04:17;15.60;99.90
16118;DHT22;8163;50.118;5.342;2022-09-09T08:06:46;15.60;99.90
16118;DHT22;8163;50.118;5.342;2022-09-09T08:09:14;15.60;99.90
16118;DHT22;8163;50.118;5.342;2022-09-09T08:11:43;15.60;99.90
16118;DHT22;8163;50.118;5.342;2022-09-09T08:14:11;15.70;99.90
16118;DHT22;8163;50.118;5.342;2022-09-09T08:16:40;15.80;99.90
16118;DHT22;8163;50.118;5.342;2022-09-09T08:19:07;16.10;99.90
16118;DHT22;8163;50.118;5.342;2022-09-09T08:21:36;16.50;99.90
16118;DHT22;8163;50.118;5.342;2022-09-09T08:24:05;16.70;99.90
16118;DHT22;8163;50.118;5.342;2022-09-09T08:26:35;16.80;99.90
16118;DHT22;8163;50.118;5.342;2022-09-09T08:29:05;16.90;99.90
16118;DHT22;8163;50.118;5.342;2022-09-09T08:31:34;17.00;99.90
16118;DHT22;8163;50.118;5.342;2022-09-09T08:34:04;17.00;99.90
16118;DHT22;8163;50.118;5.342;2022-09-09T08:36:32;17.60;99.90
16118;DHT22;8163;50.118;5.342;2022-09-09T08:39:02;18.10;99.90
16118;DHT22;8163;50.118;5.342;2022-09-09T08:41:43;18.50;99.90
16118;DHT22;8163;50.118;5.342;2022-09-09T08:44:19;18.30;99.90
16118;DHT22;8163;50.118;5.342;2022-09-09T08:46:53;17.80;99.90
16118;DHT22;8163;50.118;5.342;2022-09-09T08:49:43;17.30;99.90
16118;DHT22;8163;50.118;5.342;2022-09-09T08:52:19;16.90;99.90
16118;DHT22;8163;50.118;5.342;2022-09-09T08:54:47;16.70;99.90
16118;DHT22;8163;50.118;5.342;2022-09-09T08:57:20;16.70;99.90
16118;DHT22;8163;50.118;5.342;2022-09-09T08:59:50;16.80;99.90
16118;DHT22;8163;50.118;5.342;2022-09-09T09:02:21;16.70;99.90
16118;DHT22;8163;50.118;5.342;2022-09-09T09:04:57;16.80;99.90
16118;DHT22;8163;50.118;5.342;2022-09-09T09:07:35;16.90;99.90
16118;DHT22;8163;50.118;5.342;2022-09-09T09:10:12;17.10;99.90
16118;DHT22;8163;50.118;5.342;2022-09-09T09:12:43;17.10;99.90
16118;DHT22;8163;50.118;5.342;2022-09-09T09:15:19;17.00;99.90
16118;DHT22;8163;50.118;5.342;2022-09-09T09:17:47;16.90;99.90
16118;DHT22;8163;50.118;5.342;2022-09-09T09:20:17;16.80;99.90
16118;DHT22;8163;50.118;5.342;2022-09-09T09:22:49;16.70;99.90
16118;DHT22;8163;50.118;5.342;2022-09-09T09:25:18;16.60;99.90
16118;DHT22;8163;50.118;5.342;2022-09-09T09:27:51;16.60;99.90
16118;DHT22;8163;50.118;5.342;2022-09-09T09:30:23;17.00;99.90
16118;DHT22;8163;50.118;5.342;2022-09-09T09:32:54;17.10;99.90
16118;DHT22;8163;50.118;5.342;2022-09-09T09:35:22;17.30;99.90
16118;DHT22;8163;50.118;5.342;2022-09-09T09:37:50;17.50;99.90
16118;DHT22;8163;50.118;5.342;2022-09-09T09:40:18;17.40;99.90
16118;DHT22;8163;50.118;5.342;2022-09-09T09:42:53;17.10;99.90
16118;DHT22;8163;50.118;5.342;2022-09-09T09:45:27;16.90;99.90
16118;DHT22;8163;50.118;5.342;2022-09-09T09:47:59;16.70;99.90
16118;DHT22;8163;50.118;5.342;2022-09-09T09:50:27;16.80;99.90
16118;DHT22;8163;50.118;5.342;2022-09-09T09:52:55;17.00;99.90
16118;DHT22;8163;50.118;5.342;2022-09-09T09:55:23;17.00;99.90
16118;DHT22;8163;50.118;5.342;2022-09-09T09:57:51;16.90;99.90
16118;DHT22;8163;50.118;5.342;2022-09-09T10:00:20;16.90;99.90
16118;DHT22;8163;50.118;5.342;2022-09-09T10:02:50;17.20;99.90
16118;DHT22;8163;50.118;5.342;2022-09-09T10:05:19;17.30;99.90
16118;DHT22;8163;50.118;5.342;2022-09-09T10:07:59;17.30;99.90
16118;DHT22;8163;50.118;5.342;2022-09-09T10:10:37;17.30;99.90
16118;DHT22;8163;50.118;5.342;2022-09-09T10:13:13;17.30;99.90
16118;DHT22;8163;50.118;5.342;2022-09-09T10:15:50;17.20;99.90
16118;DHT22;8163;50.118;5.342;2022-09-09T10:18:39;17.00;99.90
16118;DHT22;8163;50.118;5.342;2022-09-09T10:21:20;16.80;99.90
16118;DHT22;8163;50.118;5.342;2022-09-09T10:24:01;17.10;99.90
16118;DHT22;8163;50.118;5.342;2022-09-09T10:26:38;17.40;99.90
16118;DHT22;8163;50.118;5.342;2022-09-09T10:29:24;17.90;99.90
16118;DHT22;8163;50.118;5.342;2022-09-09T10:32:03;18.30;99.90
16118;DHT22;8163;50.118;5.342;2022-09-09T10:34:52;18.60;99.90
16118;DHT22;8163;50.118;5.342;2022-09-09T10:37:34;18.50;99.90
16118;DHT22;8163;50.118;5.342;2022-09-09T10:40:12;18.10;99.90
16118;DHT22;8163;50.118;5.342;2022-09-09T10:42:42;17.80;99.90
16118;DHT22;8163;50.118;5.342;2022-09-09T10:45:17;17.40;99.90
16118;DHT22;8163;50.118;5.342;2022-09-09T10:48:10;17.10;99.90
16118;DHT22;8163;50.118;5.342;2022-09-09T10:50:54;16.90;99.90
16118;DHT22;8163;50.118;5.342;2022-09-09T10:53:34;16.90;99.90
16118;DHT22;8163;50.118;5.342;2022-09-09T10:56:04;17.10;99.90
16118;DHT22;8163;50.118;5.342;2022-09-09T10:58:37;17.10;99.90
16118;DHT22;8163;50.118;5.342;2022-09-09T11:01:15;17.10;99.90
16118;DHT22;8163;50.118;5.342;2022-09-09T11:03:47;17.10;99.90
16118;DHT22;8163;50.118;5.342;2022-09-09T11:06:19;17.20;99.90
16118;DHT22;8163;50.118;5.342;2022-09-09T11:08:48;17.30;99.90
16118;DHT22;8163;50.118;5.342;2022-09-09T11:11:20;17.40;99.90
16118;DHT22;8163;50.118;5.342;2022-09-09T11:13:53;17.40;99.90
16118;DHT22;8163;50.118;5.342;2022-09-09T11:16:27;17.40;99.90
16118;DHT22;8163;50.118;5.342;2022-09-09T11:18:58;17.40;99.90
16118;DHT22;8163;50.118;5.342;2022-09-09T11:21:33;17.40;99.90
16118;DHT22;8163;50.118;5.342;2022-09-09T11:24:04;17.30;99.90
16118;DHT22;8163;50.118;5.342;2022-09-09T11:26:38;17.20;99.90
16118;DHT22;8163;50.118;5.342;2022-09-09T11:29:26;17.20;99.90
16118;DHT22;8163;50.118;5.342;2022-09-09T11:32:10;17.10;99.90
16118;DHT22;8163;50.118;5.342;2022-09-09T11:34:50;17.40;99.90
16118;DHT22;8163;50.118;5.342;2022-09-09T11:43:54;18.60;99.90
16118;DHT22;8163;50.118;5.342;2022-09-09T11:46:31;18.80;99.90
16118;DHT22;8163;50.118;5.342;2022-09-09T11:49:06;18.70;99.90
16118;DHT22;8163;50.118;5.342;2022-09-09T11:51:34;18.50;99.90
16118;DHT22;8163;50.118;5.342;2022-09-09T11:54:30;18.30;99.90
16118;DHT22;8163;50.118;5.342;2022-09-09T11:56:59;18.20;99.90
16118;DHT22;8163;50.118;5.342;2022-09-09T11:59:27;18.10;99.90
16118;DHT22;8163;50.118;5.342;2022-09-09T12:01:57;18.20;99.90
16118;DHT22;8163;50.118;5.342;2022-09-09T12:04:34;18.30;99.90
16118;DHT22;8163;50.118;5.342;2022-09-09T12:07:18;18.30;99.90
16118;DHT22;8163;50.118;5.342;2022-09-09T12:09:51;18.50;99.90
16118;DHT22;8163;50.118;5.342;2022-09-09T12:12:33;18.80;99.90
16118;DHT22;8163;50.118;5.342;2022-09-09T12:15:22;18.70;99.90
16118;DHT22;8163;50.118;5.342;2022-09-09T12:17:52;18.60;99.90
16118;DHT22;8163;50.118;5.342;2022-09-09T12:20:22;18.30;99.90
16118;DHT22;8163;50.118;5.342;2022-09-09T12:22:58;18.20;99.90
16118;DHT22;8163;50.118;5.342;2022-09-09T12:25:39;18.10;99.90
16118;DHT22;8163;50.118;5.342;2022-09-09T12:28:14;18.30;99.90
16118;DHT22;8163;50.118;5.342;2022-09-09T12:30:48;18.60;99.90
16118;DHT22;8163;50.118;5.342;2022-09-09T12:33:18;18.80;99.90
16118;DHT22;8163;50.118;5.342;2022-09-09T12:35:50;18.90;99.90
16118;DHT22;8163;50.118;5.342;2022-09-09T12:38:24;18.90;99.90
16118;DHT22;8163;50.118;5.342;2022-09-09T12:40:56;18.80;99.90
16118;DHT22;8163;50.118;5.342;2022-09-09T12:43:25;18.80;99.90
16118;DHT22;8163;50.118;5.342;2022-09-09T12:45:56;18.70;99.90
16118;DHT22;8163;50.118;5.342;2022-09-09T12:48:29;18.40;99.90
16118;DHT22;8163;50.118;5.342;2022-09-09T12:50:57;17.90;99.90
16118;DHT22;8163;50.118;5.342;2022-09-09T12:53:28;17.80;99.90
16118;DHT22;8163;50.118;5.342;2022-09-09T12:55:59;17.70;99.90
16118;DHT22;8163;50.118;5.342;2022-09-09T12:58:26;17.50;99.90
16118;DHT22;8163;50.118;5.342;2022-09-09T13:00:59;17.40;99.90
16118;DHT22;8163;50.118;5.342;2022-09-09T13:03:26;17.30;99.90
16118;DHT22;8163;50.118;5.342;2022-09-09T13:05:58;17.20;99.90
16118;DHT22;8163;50.118;5.342;2022-09-09T13:08:31;17.00;99.90
16118;DHT22;8163;50.118;5.342;2022-09-09T13:11:02;16.90;99.90
16118;DHT22;8163;50.118;5.342;2022-09-09T13:13:35;16.60;99.90
16118;DHT22;8163;50.118;5.342;2022-09-09T13:16:04;16.50;99.90
16118;DHT22;8163;50.118;5.342;2022-09-09T13:18:34;16.20;99.90
16118;DHT22;8163;50.118;5.342;2022-09-09T13:21:03;16.10;99.90
16118;DHT22;8163;50.118;5.342;2022-09-09T13:23:32;16.00;99.90
16118;DHT22;8163;50.118;5.342;2022-09-09T13:26:04;16.00;99.90
16118;DHT22;8163;50.118;5.342;2022-09-09T13:28:32;16.40;99.90
16118;DHT22;8163;50.118;5.342;2022-09-09T13:31:00;17.20;99.90
16118;DHT22;8163;50.118;5.342;2022-09-09T13:33:33;17.80;99.90
16118;DHT22;8163;50.118;5.342;2022-09-09T13:36:04;18.00;99.90
16118;DHT22;8163;50.118;5.342;2022-09-09T13:38:33;18.00;99.90
16118;DHT22;8163;50.118;5.342;2022-09-09T13:41:04;17.90;99.90
16118;DHT22;8163;50.118;5.342;2022-09-09T13:43:36;17.80;99.90
16118;DHT22;8163;50.118;5.342;2022-09-09T13:46:05;17.70;99.90
16118;DHT22;8163;50.118;5.342;2022-09-09T13:48:54;17.60;99.90
16118;DHT22;8163;50.118;5.342;2022-09-09T13:51:29;17.60;99.90
16118;DHT22;8163;50.118;5.342;2022-09-09T13:53:56;17.50;99.90
16118;DHT22;8163;50.118;5.342;2022-09-09T13:56:26;17.40;99.90
16118;DHT22;8163;50.118;5.342;2022-09-09T13:58:53;17.20;99.90
16118;DHT22;8163;50.118;5.342;2022-09-09T14:01:20;17.00;99.90
16118;DHT22;8163;50.118;5.342;2022-09-09T14:03:47;16.80;99.90
16118;DHT22;8163;50.118;5.342;2022-09-09T14:06:13;16.70;99.90
16118;DHT22;8163;50.118;5.342;2022-09-09T14:08:40;16.60;99.90
16118;DHT22;8163;50.118;5.342;2022-09-09T14:11:12;16.50;99.90
16118;DHT22;8163;50.118;5.342;2022-09-09T14:13:40;16.50;99.90
16118;DHT22;8163;50.118;5.342;2022-09-09T14:16:07;16.30;99.90
16118;DHT22;8163;50.118;5.342;2022-09-09T14:18:35;16.20;99.90
16118;DHT22;8163;50.118;5.342;2022-09-09T14:21:03;16.10;99.90
16118;DHT22;8163;50.118;5.342;2022-09-09T14:23:30;16.00;99.90
16118;DHT22;8163;50.118;5.342;2022-09-09T14:25:57;16.00;99.90
16118;DHT22;8163;50.118;5.342;2022-09-09T14:28:24;16.00;99.90
16118;DHT22;8163;50.118;5.342;2022-09-09T14:31:01;16.00;99.90
16118;DHT22;8163;50.118;5.342;2022-09-09T14:33:29;16.00;99.90
16118;DHT22;8163;50.118;5.342;2022-09-09T14:35:57;16.10;99.90
16118;DHT22;8163;50.118;5.342;2022-09-09T14:38:29;16.10;99.90
16118;DHT22;8163;50.118;5.342;2022-09-09T14:40:56;16.20;99.90
16118;DHT22;8163;50.118;5.342;2022-09-09T14:43:24;16.20;99.90
16118;DHT22;8163;50.118;5.342;2022-09-09T14:45:52;16.30;99.90
16118;DHT22;8163;50.118;5.342;2022-09-09T14:48:20;16.30;99.90
16118;DHT22;8163;50.118;5.342;2022-09-09T14:50:47;16.30;99.90
16118;DHT22;8163;50.118;5.342;2022-09-09T14:53:16;16.40;99.90
16118;DHT22;8163;50.118;5.342;2022-09-09T14:55:43;16.40;99.90
16118;DHT22;8163;50.118;5.342;2022-09-09T14:58:12;16.40;99.90
16118;DHT22;8163;50.118;5.342;2022-09-09T15:37:34;15.90;99.90
16118;DHT22;8163;50.118;5.342;2022-09-09T15:40:02;15.80;99.90
16118;DHT22;8163;50.118;5.342;2022-09-09T15:42:30;15.80;99.90
16118;DHT22;8163;50.118;5.342;2022-09-09T15:44:57;15.90;99.90
16118;DHT22;8163;50.118;5.342;2022-09-09T15:47:24;15.90;99.90
16118;DHT22;8163;50.118;5.342;2022-09-09T15:49:52;16.10;99.90
16118;DHT22;8163;50.118;5.342;2022-09-09T15:52:19;16.20;99.90
16118;DHT22;8163;50.118;5.342;2022-09-09T15:54:47;16.30;99.90
16118;DHT22;8163;50.118;5.342;2022-09-09T15:57:14;16.40;99.90
16118;DHT22;8163;50.118;5.342;2022-09-09T15:59:41;16.50;99.90
16118;DHT22;8163;50.118;5.342;2022-09-09T16:02:10;16.50;99.90
16118;DHT22;8163;50.118;5.342;2022-09-09T16:04:38;16.60;99.90
16118;DHT22;8163;50.118;5.342;2022-09-09T16:07:05;16.70;99.90
16118;DHT22;8163;50.118;5.342;2022-09-09T16:09:33;16.70;99.90
16118;DHT22;8163;50.118;5.342;2022-09-09T16:12:04;16.70;99.90
16118;DHT22;8163;50.118;5.342;2022-09-09T16:14:35;16.60;99.90
16118;DHT22;8163;50.118;5.342;2022-09-09T16:17:03;16.50;99.90
16118;DHT22;8163;50.118;5.342;2022-09-09T16:19:30;16.50;99.90
16118;DHT22;8163;50.118;5.342;2022-09-09T16:21:57;16.50;99.90
16118;DHT22;8163;50.118;5.342;2022-09-09T16:24:24;16.60;99.90
16118;DHT22;8163;50.118;5.342;2022-09-09T16:26:53;16.60;99.90
16118;DHT22;8163;50.118;5.342;2022-09-09T16:29:22;16.40;99.90
16118;DHT22;8163;50.118;5.342;2022-09-09T16:31:51;16.30;99.90
16118;DHT22;8163;50.118;5.342;2022-09-09T16:34:19;16.20;99.90
16118;DHT22;8163;50.118;5.342;2022-09-09T16:36:47;16.20;99.90
16118;DHT22;8163;50.118;5.342;2022-09-09T16:39:16;16.10;99.90
16118;DHT22;8163;50.118;5.342;2022-09-09T16:41:45;16.00;99.90
16118;DHT22;8163;50.118;5.342;2022-09-09T16:44:14;16.00;99.90
16118;DHT22;8163;50.118;5.342;2022-09-09T16:46:44;15.90;99.90
16118;DHT22;8163;50.118;5.342;2022-09-09T16:49:14;15.90;99.90
16118;DHT22;8163;50.118;5.342;2022-09-09T16:51:42;15.80;99.90